СИЛА РОССИИ. Форум сайта «Отвага» (www.otvaga2004.ru)

Информация о пользователе

Привет, Гость! Войдите или зарегистрируйтесь.


Вы здесь » СИЛА РОССИИ. Форум сайта «Отвага» (www.otvaga2004.ru) » Вооружение сухопутных войск


Вооружение сухопутных войск

Тем 1 страница 30 из 194

Тема Ответов Просмотров Последнее сообщение
1 Важно: Средства ПВО-9  ДимитриUS  [ 1 2 3  35 ]
1039 97535 2020-08-11 19:52:08  Ракетчиг
1052 102790 Сегодня 07:59:04  skylancer-3441
3 Пулеметы-8  KORVIN  [ 1 2 3  29 ]
843 95892 Сегодня 07:45:12  mr_tank
896 163270 Вчера 22:21:39  gecher
566 103876 Вчера 17:58:53  leonard61
6 Пистолеты-4  Абалкин  [ 1 2 3  8 ]
212 24503 Вчера 11:45:42  Wind
7 СИБЗ-3  Wiedzmin  [ 1 2 3  13 ]
371 89258 Вчера 10:31:03  Арсений80
673 68770 2020-08-12 11:11:52  Wind
9 Боевые роботы 2  Шестопер  [ 1 2 3 4 5 ]
135 24624 2020-08-11 13:05:52  Wind
123 20307 2020-08-11 12:25:55  Абалкин
1045 65982 2020-08-11 11:47:55  Tactical Kit
12 Снайперские винтовки-5  vasya83  [ 1 2 3  11 ]
314 58080 2020-08-10 10:08:16  Wind
13 Оружейные и околооружейные новости  Хорт мохнатый  [ 1 2 3  17 ]
503 60624 2020-08-09 19:41:11  Viktory
151 26980 2020-08-09 12:43:33  Dobryak
15 РСЗО-4  finnbogi  [ 1 2 3  20 ]
589 68704 2020-08-07 14:19:30  Alex_Flanker
16 Пистолеты-пулеметы  Zaklepkin  [ 1 2 3  26 ]
768 121171 2020-08-06 11:06:55  Wind
17 Прицелы-2  KORVIN  [ 1 2 3  23 ]
688 109427 2020-08-01 18:33:38  DAK
79 5093 2020-07-31 14:53:58  ALexter161
595 13049 2020-07-25 21:15:51  vasya83
243 33927 2020-07-21 14:26:29  Wind
271 66925 2020-07-17 14:13:18  Wind
22 Камуфляж-2  KORVIN  [ 1 2 3  12 ]
333 74833 2020-07-16 12:06:58  Wind
757 108813 2020-07-05 07:41:54  G1kk
24 Минометы  MARINIR  [ 1 2 ]
34 7171 2020-07-01 23:27:06  Абалкин
25 Средства ПВО - 8  kinetic  [ 1 2 3  34 ]
1003 107363 2020-06-30 16:14:58  Blitz.
546 46302 2020-06-26 10:51:27  ObObOb
589 51670 2020-06-20 23:21:47  Oleg7700
150 28742 2020-06-19 23:04:13  Абалкин
29 вопрос про КПВТ  Нихтферштейн
7 1111 2020-06-13 21:26:23  Blitz.
64 4063 2020-06-11 12:14:50  finnbogi

Вы здесь » СИЛА РОССИИ. Форум сайта «Отвага» (www.otvaga2004.ru) » Вооружение сухопутных войск